Shawbury (EGOS)

METAR

EGOS 232350Z 25005KT 9999 FEW040 12/10 Q1024 BLU NOSIG

QNH
1024
TEMP
12 °C
TAF

TAF TAF EGOS 171634Z 1718/1821 CNL